Time;durP1;ratioP1;P1;durP2;ratioP2;P2;SDS_P1;SDS_P2;PMS_P1;PMS_P2;Temp;Humidity;BMP_temperature;BMP_pressure;BME280_temperature;BME280_humidity;BME280_pressure;Samples;Min_cycle;Max_cycle;Signal;HPM_P1;HPM_P2
2023/11/28 00:01:05;;;;;;;7.10;3.05;;;;;;;0.25;61.91;93316.03;4874272;29;20082;-86
2023/11/28 00:03:33;;;;;;;7.68;3.05;;;;;;;0.24;60.52;93307.38;4872933;29;20041;-86
2023/11/28 00:05:59;;;;;;;10.05;2.47;;;;;;;0.17;61.37;93301.59;4872820;29;20283;-87
2023/11/28 00:08:26;;;;;;;4.57;2.03;;;;;;;0.01;60.38;93303.44;4872271;29;20034;-87
2023/11/28 00:10:53;;;;;;;7.18;2.72;;;;;;;0.07;59.90;93307.63;4872498;29;20025;-87
2023/11/28 00:13:19;;;;;;;8.13;3.45;;;;;;;0.02;59.75;93291.09;4873165;29;20078;-87
2023/11/28 00:15:44;;;;;;;8.10;2.97;;;;;;;0.00;60.42;93280.91;4872076;29;20022;-87
2023/11/28 00:18:10;;;;;;;5.70;2.47;;;;;;;0.02;61.83;93275.38;4872419;29;20026;-89
2023/11/28 00:20:36;;;;;;;6.00;2.38;;;;;;;0.00;61.23;93275.66;4873005;29;20052;-90
2023/11/28 00:23:01;;;;;;;9.70;2.90;;;;;;;-0.02;61.35;93264.63;4871568;29;20030;-86
2023/11/28 00:25:27;;;;;;;8.32;2.85;;;;;;;-0.05;60.31;93246.84;4871408;29;20033;-86
2023/11/28 00:27:52;;;;;;;9.05;3.25;;;;;;;-0.19;61.31;93261.50;4871233;29;20046;-85
2023/11/28 00:30:18;;;;;;;8.48;2.90;;;;;;;-0.24;61.97;93249.19;4871066;29;20315;-86
2023/11/28 00:32:44;;;;;;;6.13;2.50;;;;;;;-0.23;61.05;93242.88;4871404;29;20036;-85
2023/11/28 00:35:09;;;;;;;7.65;2.90;;;;;;;-0.18;60.54;93247.34;4872697;29;20026;-85
2023/11/28 00:37:35;;;;;;;7.57;2.70;;;;;;;-0.24;61.79;93242.09;4872460;29;20045;-86
2023/11/28 00:40:04;;;;;;;8.20;2.60;;;;;;;-0.22;62.75;93253.09;4872341;29;20033;-86
2023/11/28 00:42:30;;;;;;;10.02;3.63;;;;;;;-0.18;62.57;93249.94;4871112;29;20034;-87
2023/11/28 00:44:55;;;;;;;9.05;2.95;;;;;;;-0.16;62.79;93234.75;4872318;29;20092;-86
2023/11/28 00:47:21;;;;;;;6.05;2.38;;;;;;;-0.23;62.64;93241.03;4872063;29;20069;-87
2023/11/28 00:49:46;;;;;;;6.82;2.90;;;;;;;-0.30;63.69;93243.16;4872350;29;20138;-87
2023/11/28 00:52:12;;;;;;;9.57;3.03;;;;;;;-0.32;63.69;93245.25;4871172;29;20033;-86
2023/11/28 00:54:38;;;;;;;7.57;2.65;;;;;;;-0.36;64.35;93249.44;4871139;29;20053;-87
2023/11/28 00:57:07;;;;;;;5.25;2.40;;;;;;;-0.45;64.19;93230.03;4871838;29;20096;-87
2023/11/28 00:59:33;;;;;;;5.22;2.05;;;;;;;-0.41;64.47;93228.47;4871785;29;20029;-88
2023/11/28 01:02:00;;;;;;;7.55;2.88;;;;;;;-0.54;64.52;93228.97;4871857;29;20029;-86
2023/11/28 01:04:26;;;;;;;11.32;2.85;;;;;;;-0.56;64.89;93215.34;4871612;29;20082;-86
2023/11/28 01:06:51;;;;;;;5.32;2.40;;;;;;;-0.57;64.95;93221.63;4871561;29;20025;-87
2023/11/28 01:09:17;;;;;;;9.02;3.00;;;;;;;-0.60;65.54;93215.09;4871792;29;20326;-87
2023/11/28 01:11:42;;;;;;;3.83;1.48;;;;;;;-0.56;65.70;93225.81;4870524;29;20021;-86
2023/11/28 01:14:07;;;;;;;6.20;2.25;;;;;;;-0.70;65.53;93226.31;4871442;29;20025;-87
2023/11/28 01:16:34;;;;;;;5.72;2.33;;;;;;;-0.65;65.30;93215.09;4870715;29;20021;-90
2023/11/28 01:19:00;;;;;;;5.13;2.08;;;;;;;-0.65;66.25;93208.00;4870965;29;20032;-89
2023/11/28 01:21:25;;;;;;;5.50;2.08;;;;;;;-0.57;66.25;93198.06;4871108;29;20026;-90
2023/11/28 01:23:51;;;;;;;6.63;1.90;;;;;;;-0.61;65.95;93198.59;4872148;29;20372;-90
2023/11/28 01:26:16;;;;;;;5.22;1.52;;;;;;;-0.63;66.32;93200.69;4872295;29;20032;-90
2023/11/28 01:28:42;;;;;;;4.95;2.17;;;;;;;-0.74;66.68;93198.31;4871551;29;20026;-91
2023/11/28 01:31:11;;;;;;;5.38;1.77;;;;;;;-0.69;66.05;93185.22;4872071;29;20338;-89
2023/11/28 01:33:37;;;;;;;4.10;1.70;;;;;;;-0.73;66.31;93187.59;4872390;29;20022;-88
2023/11/28 01:36:07;;;;;;;4.35;2.08;;;;;;;-0.72;66.29;93186.53;4871044;29;20242;-88
2023/11/28 01:38:32;;;;;;;3.88;1.52;;;;;;;-0.66;66.09;93190.72;4871932;29;20021;-89
2023/11/28 01:40:59;;;;;;;3.92;1.58;;;;;;;-0.57;66.04;93177.13;4871785;29;20096;-89
2023/11/28 01:43:26;;;;;;;4.65;1.90;;;;;;;-0.42;66.43;93179.78;4872213;29;20025;-88
2023/11/28 01:45:52;;;;;;;2.75;1.58;;;;;;;-0.32;66.89;93171.13;4871828;29;20074;-89
2023/11/28 01:48:19;;;;;;;4.20;1.48;;;;;;;-0.33;66.29;93170.34;4871567;29;20084;-89
2023/11/28 01:50:50;;;;;;;4.70;2.33;;;;;;;-0.31;65.98;93160.38;4870692;29;20025;-89
2023/11/28 01:53:17;;;;;;;5.93;2.00;;;;;;;-0.27;65.50;93158.03;4872078;29;20045;-89
2023/11/28 01:55:44;;;;;;;7.38;2.42;;;;;;;-0.27;66.04;93150.94;4871609;29;20017;-89
2023/11/28 01:58:11;;;;;;;4.93;2.38;;;;;;;-0.17;65.72;93141.53;4871557;29;20017;-89
2023/11/28 02:00:37;;;;;;;6.18;2.10;;;;;;;-0.16;66.20;93140.47;4870952;29;20228;-89
2023/11/28 02:03:03;;;;;;;3.85;1.70;;;;;;;-0.26;65.93;93142.06;4871314;29;20022;-89
2023/11/28 02:05:30;;;;;;;3.85;2.05;;;;;;;-0.20;65.83;93140.22;4871335;29;20034;-90
2023/11/28 02:07:55;;;;;;;4.20;2.00;;;;;;;-0.26;65.07;93126.34;4871069;29;20030;-90
2023/11/28 02:10:23;;;;;;;4.90;1.95;;;;;;;-0.22;66.03;93132.63;4871384;29;20097;-89
2023/11/28 02:12:49;;;;;;;5.05;2.05;;;;;;;-0.16;66.86;93125.56;4871902;29;20113;-89
2023/11/28 02:15:14;;;;;;;6.57;2.15;;;;;;;-0.14;66.33;93127.88;4874053;29;20034;-87
2023/11/28 02:17:40;;;;;;;12.60;2.83;;;;;;;-0.13;66.10;93126.84;4871865;29;20100;-88
2023/11/28 02:20:08;;;;;;;5.07;2.33;;;;;;;-0.06;66.91;93129.97;4871452;29;20025;-87
2023/11/28 02:22:34;;;;;;;6.53;2.65;;;;;;;-0.03;66.50;93126.84;4871122;29;20029;-88
2023/11/28 02:25:01;;;;;;;8.25;2.75;;;;;;;-0.06;66.40;93115.06;4870089;29;20101;-88
2023/11/28 02:27:27;;;;;;;9.30;3.33;;;;;;;-0.15;66.69;93128.94;4870891;29;20030;-88
2023/11/28 02:29:53;;;;;;;7.65;2.92;;;;;;;-0.07;66.49;93112.69;4871006;29;20141;-88
2023/11/28 02:32:19;;;;;;;5.88;2.67;;;;;;;-0.10;66.90;93111.41;4870814;29;20026;-87
2023/11/28 02:34:45;;;;;;;7.43;2.65;;;;;;;-0.07;66.51;93102.22;4873307;29;20030;-87
2023/11/28 02:37:10;;;;;;;6.50;2.63;;;;;;;-0.10;66.89;93092.25;4873199;29;20109;-87
2023/11/28 02:39:36;;;;;;;9.02;3.17;;;;;;;-0.10;67.07;93097.50;4873088;29;20040;-87
2023/11/28 02:42:01;;;;;;;6.78;2.60;;;;;;;0.04;68.20;93103.78;4873929;29;20032;-87
2023/11/28 02:44:27;;;;;;;9.85;3.47;;;;;;;0.12;67.39;93100.63;4872464;29;20022;-87
2023/11/28 02:46:52;;;;;;;8.57;3.15;;;;;;;0.21;66.85;93098.22;4873864;29;20029;-87
2023/11/28 02:49:18;;;;;;;6.20;2.42;;;;;;;0.24;67.02;93089.03;4872616;29;20029;-88
2023/11/28 02:51:43;;;;;;;6.65;2.60;;;;;;;0.29;67.46;93096.91;4872547;29;20037;-88
2023/11/28 02:54:09;;;;;;;5.05;2.20;;;;;;;0.42;66.30;93092.91;4872243;29;20335;-88
2023/11/28 02:56:34;;;;;;;5.85;2.80;;;;;;;0.44;66.51;93094.19;4873864;29;20056;-88
2023/11/28 02:58:59;;;;;;;8.65;2.90;;;;;;;0.47;66.46;93085.00;4873000;29;20036;-88
2023/11/28 03:01:25;;;;;;;7.70;2.85;;;;;;;0.52;66.57;93085.00;4874215;29;20045;-88
2023/11/28 03:03:50;;;;;;;9.10;3.03;;;;;;;0.52;65.60;93067.44;4873832;29;20026;-87
2023/11/28 03:06:16;;;;;;;8.95;3.40;;;;;;;0.52;65.92;93070.03;4873619;29;20101;-88
2023/11/28 03:08:41;;;;;;;9.48;3.45;;;;;;;0.62;65.29;93060.56;4873190;29;20029;-88
2023/11/28 03:11:08;;;;;;;6.68;2.92;;;;;;;0.63;65.91;93070.00;4872970;29;20032;-89
2023/11/28 03:13:34;;;;;;;7.13;3.17;;;;;;;0.55;66.38;93068.72;4874219;29;20056;-90
2023/11/28 03:16:01;;;;;;;7.30;2.97;;;;;;;0.53;66.27;93079.50;4874043;29;20312;-90
2023/11/28 03:18:26;;;;;;;8.25;2.97;;;;;;;0.49;65.80;93072.41;4872999;29;20037;-90
2023/11/28 03:20:52;;;;;;;5.30;2.80;;;;;;;0.46;65.65;93058.00;4875349;29;20096;-89
2023/11/28 03:23:17;;;;;;;9.50;2.75;;;;;;;0.48;66.41;93065.63;4874889;29;20104;-89
2023/11/28 03:25:42;;;;;;;6.22;2.97;;;;;;;0.47;66.70;93043.06;4876336;29;20036;-90
2023/11/28 03:28:08;;;;;;;8.57;3.83;;;;;;;0.59;67.12;93039.09;4875249;29;20029;-90
2023/11/28 03:30:34;;;;;;;8.38;3.17;;;;;;;0.64;66.50;93053.22;4874272;29;20025;-88
2023/11/28 03:32:59;;;;;;;7.38;3.00;;;;;;;0.65;66.48;93033.78;4873693;29;20029;-88
2023/11/28 03:35:27;;;;;;;7.22;3.30;;;;;;;0.72;67.05;93026.41;4872736;29;20070;-89
2023/11/28 03:37:52;;;;;;;9.95;3.33;;;;;;;0.75;67.30;93029.28;4872332;29;20308;-88
2023/11/28 03:40:18;;;;;;;6.95;3.20;;;;;;;0.82;67.46;93028.97;4872786;29;20036;-89
2023/11/28 03:42:43;;;;;;;10.75;3.33;;;;;;;0.83;65.89;93019.25;4873617;29;20034;-88
2023/11/28 03:45:10;;;;;;;12.65;5.47;;;;;;;0.83;66.13;93027.13;4872060;29;20037;-90
2023/11/28 03:47:35;;;;;;;8.13;3.80;;;;;;;0.88;67.01;93017.41;4873876;29;20026;-88
2023/11/28 03:50:00;;;;;;;9.80;3.90;;;;;;;0.87;66.47;93009.78;4871843;29;20036;-87
2023/11/28 03:52:26;;;;;;;10.38;3.60;;;;;;;0.85;65.88;93017.94;4872995;29;20064;-87
2023/11/28 03:54:51;;;;;;;6.75;3.00;;;;;;;0.80;66.58;93036.34;4873190;29;20021;-85
2023/11/28 03:57:31;;;;;;;5.43;2.85;;;;;;;0.68;67.33;93023.56;5081279;28;20752;-84
2023/11/28 03:59:57;;;;;;;6.68;3.10;;;;;;;0.62;67.67;93035.13;5081369;28;20282;-85
2023/11/28 04:02:22;;;;;;;8.13;3.13;;;;;;;0.65;67.09;93018.84;5081160;28;20020;-85
2023/11/28 04:04:47;;;;;;;7.10;2.80;;;;;;;0.67;67.04;93010.69;5079844;28;20091;-85
2023/11/28 04:07:13;;;;;;;6.88;2.90;;;;;;;0.68;67.13;93023.56;5079962;28;20020;-85
2023/11/28 04:09:38;;;;;;;5.78;3.05;;;;;;;0.68;67.06;93007.81;5081205;28;20056;-85
2023/11/28 04:12:05;;;;;;;8.35;3.00;;;;;;;0.71;66.90;93015.16;5081070;28;20052;-84
2023/11/28 04:14:30;;;;;;;8.15;4.20;;;;;;;0.62;68.00;92997.63;5080745;28;20032;-87
2023/11/28 04:16:56;;;;;;;6.25;3.10;;;;;;;0.60;69.05;92997.91;5080810;28;20013;-87
2023/11/28 04:19:21;;;;;;;10.35;4.13;;;;;;;0.56;67.99;92994.25;5080984;28;20036;-87
2023/11/28 04:21:47;;;;;;;7.25;3.53;;;;;;;0.56;67.25;92984.53;5081807;28;20028;-87
2023/11/28 04:24:12;;;;;;;9.10;3.33;;;;;;;0.62;67.53;92987.16;5081177;28;20021;-88
2023/11/28 04:26:41;;;;;;;9.55;3.95;;;;;;;0.56;67.91;92995.03;5081176;28;20020;-88
2023/11/28 04:29:06;;;;;;;5.95;3.33;;;;;;;0.50;68.58;92998.72;5081965;28;20021;-91
2023/11/28 04:31:32;;;;;;;8.05;3.47;;;;;;;0.42;68.28;92983.56;5081679;28;20021;-90
2023/11/28 04:38:21;;;;;;;6.70;3.20;;;;;;;0.52;68.13;92967.00;5078169;28;20039;-94
2023/11/28 04:43:43;;;;;;;11.02;3.20;;;;;;;0.53;69.61;92951.00;5040371;28;19927;-90
2023/11/28 04:46:08;;;;;;;14.00;4.35;;;;;;;0.58;70.19;92945.72;5070111;28;20029;-90
2023/11/28 04:48:34;;;;;;;7.25;3.40;;;;;;;0.71;70.83;92940.91;5081137;28;20024;-91
2023/11/28 04:51:00;;;;;;;7.47;3.80;;;;;;;0.76;70.24;92925.91;5081386;28;20020;-88
2023/11/28 04:53:25;;;;;;;9.52;3.92;;;;;;;0.85;68.81;92914.84;5081051;28;20215;-90
2023/11/28 04:55:51;;;;;;;11.18;3.95;;;;;;;0.90;69.06;92938.41;5079877;28;20091;-89
2023/11/28 04:58:16;;;;;;;9.35;4.03;;;;;;;0.92;70.14;92939.69;5081153;28;20024;-90
2023/11/28 05:00:42;;;;;;;7.38;4.00;;;;;;;0.92;68.79;92921.34;5080932;28;20051;-90
2023/11/28 05:03:07;;;;;;;8.38;3.85;;;;;;;0.95;69.81;92933.88;5081063;28;20020;-90
2023/11/28 05:05:33;;;;;;;8.10;3.25;;;;;;;0.95;69.25;92918.16;5081087;28;20088;-90
2023/11/28 05:07:59;;;;;;;9.95;4.10;;;;;;;0.95;68.97;92931.25;5072617;28;20278;-90
2023/11/28 05:10:25;;;;;;;8.25;3.70;;;;;;;0.98;69.82;92937.81;5067762;28;20025;-90
2023/11/28 05:12:50;;;;;;;7.97;3.92;;;;;;;1.02;70.29;92912.59;5067110;28;20248;-90
2023/11/28 05:15:16;;;;;;;9.60;4.80;;;;;;;1.03;70.99;92923.88;5066567;28;20219;-87
2023/11/28 05:17:41;;;;;;;11.98;4.20;;;;;;;0.88;70.47;92925.56;5065535;28;20214;-87
2023/11/28 05:20:10;;;;;;;12.90;4.03;;;;;;;0.79;71.02;92919.34;5067349;28;20027;-87
2023/11/28 05:22:35;;;;;;;10.15;4.97;;;;;;;0.63;72.08;92913.41;5067369;28;20258;-87
2023/11/28 05:25:01;;;;;;;11.52;5.15;;;;;;;0.67;72.44;92906.59;5066797;28;20036;-88
2023/11/28 05:27:26;;;;;;;11.45;4.65;;;;;;;0.65;72.04;92918.41;5066514;28;20044;-88
2023/11/28 05:29:52;;;;;;;13.20;5.50;;;;;;;0.58;72.01;92916.88;5066773;28;20342;-88
2023/11/28 05:32:17;;;;;;;17.30;5.40;;;;;;;0.55;71.76;92916.63;5069221;28;20083;-92
2023/11/28 05:34:43;;;;;;;13.45;5.57;;;;;;;0.40;72.14;92910.44;5070465;28;20032;-89
2023/11/28 05:37:08;;;;;;;14.80;5.80;;;;;;;0.43;71.92;92910.94;5068334;28;20025;-88
2023/11/28 05:39:34;;;;;;;16.05;5.82;;;;;;;0.44;71.59;92910.69;5067226;28;20345;-89
2023/11/28 05:41:59;;;;;;;12.82;5.10;;;;;;;0.35;71.63;92886.91;5066548;28;20021;-90
2023/11/28 05:44:25;;;;;;;9.90;4.53;;;;;;;0.33;72.16;92877.75;5067138;28;20350;-90
2023/11/28 05:46:51;;;;;;;13.57;5.55;;;;;;;0.30;72.54;92888.75;5065543;28;20020;-88
2023/11/28 05:49:16;;;;;;;12.80;5.22;;;;;;;0.32;72.16;92876.94;5065253;28;20024;-83
2023/11/28 05:51:42;;;;;;;11.43;4.80;;;;;;;0.25;72.39;92878.31;5066472;28;20021;-88
2023/11/28 05:54:07;;;;;;;10.70;5.25;;;;;;;0.23;72.01;92875.19;5065806;28;20048;-86
2023/11/28 05:56:33;;;;;;;10.43;4.05;;;;;;;0.26;73.32;92851.03;5065712;28;20040;-86
2023/11/28 05:58:58;;;;;;;8.90;4.35;;;;;;;0.26;73.25;92851.81;5065910;28;20020;-86
2023/11/28 06:01:26;;;;;;;9.50;4.00;;;;;;;0.28;72.32;92851.56;5065366;28;20028;-86
2023/11/28 06:03:51;;;;;;;12.98;4.97;;;;;;;0.30;72.52;92836.34;5065531;28;20031;-86
2023/11/28 06:06:16;;;;;;;10.48;4.25;;;;;;;0.35;72.91;92841.56;5066054;28;20084;-86
2023/11/28 06:08:42;;;;;;;12.70;4.10;;;;;;;0.40;73.44;92831.78;5065789;28;20017;-87
2023/11/28 06:11:09;;;;;;;7.63;3.85;;;;;;;0.49;73.05;92816.28;5064579;28;20051;-86
2023/11/28 06:13:34;;;;;;;8.05;3.63;;;;;;;0.60;73.88;92811.72;5066261;28;20024;-86
2023/11/28 06:16:07;;;;;;;10.63;4.95;;;;;;;0.70;73.77;92829.97;5064390;28;20017;-87
2023/11/28 06:18:32;;;;;;;12.85;5.70;;;;;;;0.79;73.71;92827.53;5064125;28;20095;-87
2023/11/28 06:20:58;;;;;;;7.40;4.18;;;;;;;0.91;71.79;92814.03;5065397;28;20212;-84
2023/11/28 06:23:23;;;;;;;10.02;4.30;;;;;;;0.92;70.34;92832.13;5064764;28;20336;-82
2023/11/28 06:25:50;;;;;;;9.70;4.43;;;;;;;0.98;70.09;92796.13;5063562;28;20017;-83
2023/11/28 06:28:16;;;;;;;10.23;3.75;;;;;;;0.97;69.50;92766.47;5063775;28;20025;-89
2023/11/28 06:30:42;;;;;;;10.75;3.65;;;;;;;1.04;69.68;92775.84;5064942;28;20041;-84
2023/11/28 06:33:08;;;;;;;8.93;4.25;;;;;;;1.10;69.10;92774.72;5065409;28;20025;-85
2023/11/28 06:35:34;;;;;;;8.00;4.10;;;;;;;0.98;69.62;92736.56;5063582;28;20029;-84
2023/11/28 06:38:01;;;;;;;9.30;3.75;;;;;;;0.93;69.60;92752.34;5064384;28;20030;-81
2023/11/28 06:40:26;;;;;;;9.63;4.10;;;;;;;0.80;70.44;92769.53;5064857;28;20025;-86
2023/11/28 06:42:52;;;;;;;8.20;4.57;;;;;;;0.83;70.87;92785.78;5063783;28;20096;-89
2023/11/28 06:45:17;;;;;;;12.65;4.82;;;;;;;0.86;70.28;92799.13;5063548;28;20041;-82
2023/11/28 06:47:42;;;;;;;8.35;4.70;;;;;;;0.85;69.94;92773.94;5063416;28;20250;-86
2023/11/28 06:50:10;;;;;;;14.98;4.93;;;;;;;0.85;69.66;92776.56;5064768;28;20020;-88
2023/11/28 06:52:36;;;;;;;9.90;4.70;;;;;;;0.83;69.33;92757.69;5064828;28;20020;-77
2023/11/28 06:55:05;;;;;;;12.63;5.38;;;;;;;0.89;70.26;92756.59;5063749;28;20040;-76
2023/11/28 06:57:32;;;;;;;9.18;5.05;;;;;;;0.85;69.29;92747.72;5063569;28;20267;-76
2023/11/28 06:59:57;;;;;;;9.20;4.47;;;;;;;0.96;69.67;92766.75;5063581;28;20021;-74
2023/11/28 07:02:23;;;;;;;13.30;4.55;;;;;;;1.00;69.33;92758.03;5063586;28;20219;-74
2023/11/28 07:04:48;;;;;;;11.00;4.18;;;;;;;1.10;69.67;92766.84;5062975;28;20031;-75
2023/11/28 07:07:14;;;;;;;7.68;3.95;;;;;;;1.15;69.22;92757.06;5061486;28;20020;-74
2023/11/28 07:09:43;;;;;;;8.82;4.50;;;;;;;1.04;70.34;92739.09;5063389;28;20031;-77
2023/11/28 07:12:11;;;;;;;14.57;6.13;;;;;;;1.13;69.13;92745.31;5063172;28;20028;-75
2023/11/28 07:14:36;;;;;;;15.38;7.88;;;;;;;1.16;69.38;92728.97;5063270;28;20028;-75
2023/11/28 07:17:02;;;;;;;24.88;9.93;;;;;;;1.20;69.70;92720.28;5062645;28;20110;-75
2023/11/28 07:19:27;;;;;;;17.27;8.25;;;;;;;1.28;69.57;92720.69;5060675;28;20184;-76
2023/11/28 07:21:53;;;;;;;14.27;6.68;;;;;;;1.32;70.04;92703.31;5060387;28;20024;-75
2023/11/28 07:24:19;;;;;;;12.93;6.97;;;;;;;1.38;69.86;92705.63;5060984;28;20025;-75
2023/11/28 07:26:45;;;;;;;14.57;6.63;;;;;;;1.46;69.60;92693.66;5061220;28;20008;-76
2023/11/28 07:29:12;;;;;;;13.38;6.57;;;;;;;1.57;69.87;92692.47;5061492;28;20043;-75
2023/11/28 07:31:38;;;;;;;14.02;6.57;;;;;;;1.63;69.70;92705.50;5061025;28;20049;-75
2023/11/28 07:34:04;;;;;;;11.55;5.05;;;;;;;1.71;68.84;92699.59;5061405;28;20017;-76
2023/11/28 07:36:29;;;;;;;7.82;4.38;;;;;;;1.75;68.08;92682.22;5063264;28;20271;-76
2023/11/28 07:38:56;;;;;;;10.07;4.97;;;;;;;1.83;68.26;92684.19;5062924;28;20021;-76
2023/11/28 07:41:22;;;;;;;10.48;4.75;;;;;;;1.92;68.79;92671.97;5062950;28;20330;-75
2023/11/28 07:43:48;;;;;;;7.50;4.32;;;;;;;2.02;68.47;92665.75;5062912;28;20031;-74
2023/11/28 07:46:15;;;;;;;8.40;4.45;;;;;;;2.05;68.91;92656.50;5062968;28;20025;-74
2023/11/28 07:48:42;;;;;;;8.57;4.22;;;;;;;2.09;68.08;92653.00;5063187;28;20033;-74
2023/11/28 07:51:09;;;;;;;13.20;5.43;;;;;;;2.14;68.14;92637.16;5062982;28;20032;-76
2023/11/28 07:53:35;;;;;;;15.38;5.40;;;;;;;2.24;68.71;92651.19;5062877;28;20092;-76
2023/11/28 07:56:01;;;;;;;10.18;5.72;;;;;;;2.12;69.01;92649.81;5062641;28;20037;-75
2023/11/28 07:58:27;;;;;;;10.23;5.25;;;;;;;2.25;69.03;92614.09;5062821;28;20041;-76
2023/11/28 08:00:52;;;;;;;14.25;5.95;;;;;;;2.28;68.93;92637.19;5062682;28;20021;-76
2023/11/28 08:03:17;;;;;;;14.57;5.88;;;;;;;2.32;68.16;92618.97;5062924;28;20099;-76
2023/11/28 08:05:43;;;;;;;9.15;4.72;;;;;;;2.41;68.17;92627.75;5062897;28;20033;-76
2023/11/28 08:08:08;;;;;;;9.75;4.03;;;;;;;2.45;66.91;92620.81;5063016;28;20052;-76
2023/11/28 08:10:34;;;;;;;4.93;2.40;;;;;;;2.47;67.02;92628.44;5062796;28;20036;-75
2023/11/28 08:12:59;;;;;;;4.13;2.20;;;;;;;2.53;66.72;92607.00;5062886;28;20088;-76
2023/11/28 08:15:25;;;;;;;12.40;3.78;;;;;;;2.54;66.20;92640.09;5062580;28;20027;-75
2023/11/28 08:17:50;;;;;;;7.15;2.50;;;;;;;2.53;66.18;92612.25;5062557;28;20020;-75
2023/11/28 08:20:16;;;;;;;4.75;2.00;;;;;;;2.58;66.32;92604.25;5062475;28;20363;-75
2023/11/28 08:22:42;;;;;;;5.32;2.28;;;;;;;2.55;66.21;92623.25;5062610;28;20278;-76
2023/11/28 08:25:08;;;;;;;6.95;3.20;;;;;;;2.61;66.56;92623.94;5062751;28;20088;-76
2023/11/28 08:27:33;;;;;;;8.05;2.70;;;;;;;2.67;66.52;92607.00;5062269;28;20083;-76
2023/11/28 08:29:59;;;;;;;14.05;5.05;;;;;;;2.66;67.50;92596.75;5062436;28;20033;-76
2023/11/28 08:32:24;;;;;;;22.60;7.95;;;;;;;2.74;67.04;92601.31;5061191;28;20024;-77
2023/11/28 08:34:49;;;;;;;33.25;9.18;;;;;;;2.80;66.94;92623.81;5061312;28;20033;-76
2023/11/28 08:37:15;;;;;;;22.90;8.52;;;;;;;2.89;66.34;92590.50;5062481;28;20139;-76
2023/11/28 08:39:40;;;;;;;36.17;11.73;;;;;;;2.85;66.61;92592.16;5062524;28;20016;-76
2023/11/28 08:42:06;;;;;;;28.55;9.60;;;;;;;2.87;67.05;92600.53;5062529;28;20025;-77
2023/11/28 08:44:32;;;;;;;20.38;8.40;;;;;;;2.90;66.97;92593.88;5066210;28;20036;-77
2023/11/28 08:46:58;;;;;;;18.02;8.82;;;;;;;2.91;66.77;92596.22;5065965;28;20013;-77
2023/11/28 08:49:24;;;;;;;13.07;7.78;;;;;;;2.97;66.97;92583.72;5065960;28;20021;-76
2023/11/28 08:51:50;;;;;;;22.65;8.73;;;;;;;3.04;66.77;92591.22;5066123;28;20044;-76
2023/11/28 08:54:15;;;;;;;14.00;7.35;;;;;;;3.04;65.91;92563.03;5066085;28;20029;-78
2023/11/28 08:56:41;;;;;;;15.48;7.60;;;;;;;3.09;66.21;92597.13;5066699;28;20064;-82
2023/11/28 08:59:07;;;;;;;13.70;6.88;;;;;;;3.15;64.75;92571.50;5067024;28;20283;-84
2023/11/28 09:01:33;;;;;;;13.35;6.20;;;;;;;3.17;64.98;92580.63;5066710;28;20029;-87
2023/11/28 09:04:00;;;;;;;13.82;6.25;;;;;;;3.11;64.48;92557.38;5066319;28;20032;-83
2023/11/28 09:06:26;;;;;;;13.65;6.72;;;;;;;3.08;64.82;92556.09;5066170;28;20028;-80
2023/11/28 09:08:52;;;;;;;10.98;5.43;;;;;;;3.14;64.01;92535.72;5065058;28;20024;-80
2023/11/28 09:11:17;;;;;;;11.23;4.68;;;;;;;3.18;63.53;92531.41;5065671;28;20031;-81
2023/11/28 09:13:43;;;;;;;8.60;5.03;;;;;;;3.21;63.35;92536.06;5065797;28;20258;-79
2023/11/28 09:16:11;;;;;;;14.40;5.70;;;;;;;3.26;63.69;92522.78;5064584;28;20030;-80
2023/11/28 09:18:36;;;;;;;13.45;4.55;;;;;;;3.21;62.24;92542.09;5066594;28;20065;-81
2023/11/28 09:21:04;;;;;;;12.98;5.35;;;;;;;3.21;63.04;92525.53;5066144;28;20028;-80
2023/11/28 09:23:31;;;;;;;11.40;5.13;;;;;;;3.31;63.71;92504.22;5066026;28;20100;-81
2023/11/28 09:25:56;;;;;;;13.10;5.30;;;;;;;3.47;63.31;92506.50;5064453;28;20032;-81
2023/11/28 09:28:22;;;;;;;12.98;5.50;;;;;;;3.59;63.79;92519.88;5065883;28;20032;-82
2023/11/28 09:30:47;;;;;;;13.52;5.82;;;;;;;3.74;63.85;92505.53;5065551;28;20061;-86
2023/11/28 09:33:12;;;;;;;16.98;7.88;;;;;;;3.64;65.09;92495.25;5066071;28;20111;-83
2023/11/28 09:35:40;;;;;;;17.13;8.35;;;;;;;3.70;65.52;92484.28;5065990;28;20055;-81
2023/11/28 09:38:07;;;;;;;21.33;8.82;;;;;;;3.85;65.69;92482.31;5066482;28;20025;-84
2023/11/28 09:40:32;;;;;;;18.90;8.85;;;;;;;3.94;66.14;92469.97;5064459;28;20078;-83
2023/11/28 09:42:58;;;;;;;16.20;6.53;;;;;;;3.93;63.90;92469.19;5064174;28;20033;-81
2023/11/28 09:45:25;;;;;;;15.05;7.78;;;;;;;3.94;63.47;92468.09;5064356;28;20059;-82
2023/11/28 09:47:52;;;;;;;8.82;4.45;;;;;;;4.05;63.79;92460.72;5065887;28;20035;-82
2023/11/28 09:50:22;;;;;;;7.80;3.55;;;;;;;4.11;63.18;92432.31;5065749;28;20051;-81
2023/11/28 09:52:51;;;;;;;25.13;8.77;;;;;;;4.08;63.32;92448.75;5064929;28;20039;-80
2023/11/28 09:55:19;;;;;;;17.52;9.38;;;;;;;3.98;64.59;92431.38;5064564;28;20033;-82
2023/11/28 09:57:48;;;;;;;17.35;8.77;;;;;;;4.03;65.37;92439.16;5065528;28;20131;-82
2023/11/28 10:00:19;;;;;;;14.55;6.40;;;;;;;4.07;64.20;92445.34;5065351;28;20020;-83
2023/11/28 10:02:47;;;;;;;15.50;6.43;;;;;;;4.14;64.50;92418.53;5065223;28;20025;-82
2023/11/28 10:05:12;;;;;;;17.25;6.43;;;;;;;4.20;63.73;92433.13;5064930;28;20032;-80
2023/11/28 10:07:42;;;;;;;12.98;4.95;;;;;;;4.22;63.43;92423.03;5064904;28;20017;-79
2023/11/28 10:10:09;;;;;;;17.42;5.97;;;;;;;4.34;63.81;92410.03;5064578;28;20025;-79
2023/11/28 10:12:36;;;;;;;13.30;4.20;;;;;;;4.43;63.24;92375.72;5064426;28;20039;-79
2023/11/28 10:15:06;;;;;;;6.15;3.38;;;;;;;4.50;62.67;92389.25;5066301;28;20025;-85
2023/11/28 10:17:33;;;;;;;5.60;2.25;;;;;;;4.59;62.33;92368.88;5063973;28;20021;-91
2023/11/28 10:20:06;;;;;;;6.97;3.25;;;;;;;4.68;62.52;92357.53;5065535;28;20021;-83
2023/11/28 10:22:33;;;;;;;8.93;2.33;;;;;;;4.67;62.44;92361.28;5065562;28;20028;-91
2023/11/28 10:24:59;;;;;;;3.70;1.85;;;;;;;4.66;60.52;92367.66;5064773;28;20341;-82
2023/11/28 10:27:28;;;;;;;3.35;1.67;;;;;;;4.65;60.84;92343.13;5063594;28;20279;-79
2023/11/28 10:29:58;;;;;;;4.28;1.90;;;;;;;4.63;60.67;92340.78;5064773;28;20031;-83
2023/11/28 10:32:29;;;;;;;5.53;2.97;;;;;;;4.67;61.07;92350.72;5065342;28;20021;-84
2023/11/28 10:34:57;;;;;;;4.18;2.20;;;;;;;4.65;61.14;92326.53;5065003;28;20047;-86
2023/11/28 10:37:23;;;;;;;3.42;2.03;;;;;;;4.67;61.48;92326.97;5065056;28;20092;-84
2023/11/28 10:39:52;;;;;;;4.82;2.60;;;;;;;4.63;61.47;92317.03;5063529;28;20036;-84
2023/11/28 10:42:19;;;;;;;4.15;2.20;;;;;;;4.65;61.70;92321.25;5064059;28;20027;-83
2023/11/28 10:44:45;;;;;;;4.38;1.85;;;;;;;4.63;61.28;92317.03;5064972;28;20029;-84
2023/11/28 10:47:13;;;;;;;8.60;2.78;;;;;;;4.61;61.56;92303.38;5064408;28;20249;-83
2023/11/28 10:49:39;;;;;;;15.77;3.70;;;;;;;4.72;61.97;92297.78;5064922;28;20020;-84
2023/11/28 10:52:05;;;;;;;8.13;3.90;;;;;;;4.86;61.90;92269.31;5063248;28;20261;-84
2023/11/28 10:54:36;;;;;;;8.25;3.72;;;;;;;4.92;62.33;92273.34;5063387;28;20319;-81
2023/11/28 10:57:11;;;;;;;5.25;2.70;;;;;;;4.92;62.30;92251.44;5064137;28;20055;-82
2023/11/28 10:59:37;;;;;;;5.88;2.85;;;;;;;4.93;62.36;92243.22;5063930;28;20021;-82
2023/11/28 11:02:08;;;;;;;9.88;4.60;;;;;;;4.94;62.06;92228.13;5064197;28;20146;-82
2023/11/28 11:04:35;;;;;;;14.73;6.28;;;;;;;4.96;63.16;92221.44;5064313;28;20056;-82
2023/11/28 11:07:00;;;;;;;17.95;6.55;;;;;;;4.99;62.93;92214.78;5064321;28;20055;-81
2023/11/28 11:09:27;;;;;;;14.75;7.88;;;;;;;5.04;63.24;92206.66;5064165;28;20025;-80
2023/11/28 11:11:55;;;;;;;16.35;7.15;;;;;;;5.17;63.14;92197.75;5063798;28;20021;-82
2023/11/28 11:14:39;;;;;;;10.32;5.65;;;;;;;5.34;63.02;92196.84;5064033;28;20024;-86
2023/11/28 11:17:23;;;;;;;7.70;3.25;;;;;;;5.56;61.48;92205.59;5064175;28;20033;-81
2023/11/28 11:19:53;;;;;;;7.00;3.17;;;;;;;5.65;61.95;92193.06;5063439;28;20108;-81
2023/11/28 11:22:21;;;;;;;7.40;2.72;;;;;;;5.82;60.94;92198.25;5062332;28;20105;-80
2023/11/28 11:24:47;;;;;;;12.43;3.10;;;;;;;5.90;59.95;92193.19;5061952;28;20319;-80
2023/11/28 11:27:12;;;;;;;12.55;3.30;;;;;;;5.86;60.31;92190.41;5062393;28;20062;-80
2023/11/28 11:29:39;;;;;;;15.52;3.60;;;;;;;5.94;61.43;92151.78;5061398;28;20025;-81
2023/11/28 11:32:10;;;;;;;9.38;3.03;;;;;;;5.92;62.67;92164.56;5061455;28;20091;-81
2023/11/28 11:34:50;;;;;;;12.25;3.95;;;;;;;6.03;60.04;92150.63;5061710;28;20222;-81
2023/11/28 11:37:17;;;;;;;10.52;3.83;;;;;;;6.07;60.48;92112.97;5061674;28;20052;-81
2023/11/28 11:39:45;;;;;;;10.75;4.53;;;;;;;6.13;61.47;92154.75;5062714;28;20021;-81